Andover, Ohio
Current Conditions -  °F | °C
As of 4:53 PM on Monday 20 Oct 2014 (Local Time) from KHZY Reporting Station
Overcast Overcast  
Wind Chill: 13°   Ceiling: 6500
Heat Index: 13°   Visibility: 10mi
Dew Point:   Wind: 13mph
Humidity: 67%   Direction: 190°S
Pressure: 29.83"   Gusts: 18mph
Location:  41.61°N, 80.57°W
Report Text: KHZY 202053Z AUTO 19011G16KT 10SM OVC065 13/07 A2983 RMK AO2 SLP104 T01280067 56011
Loading
Personal Weather Stations






























Interactive Weather Map
Tropical Storm Tracking
New forecast layout! Learn more

10-Day Weather Forecast

Advertisements
Track Severe Weather on mobile